sensor_id;sensor_type;location;lat;lon;timestamp;P1;durP1;ratioP1;P2;durP2;ratioP2
42600;SDS011;28229;48.856;9.088;2023-02-15T00:01:24;43.80;;;25.47;;
42600;SDS011;28229;48.856;9.088;2023-02-15T00:03:50;41.47;;;24.00;;
42600;SDS011;28229;48.856;9.088;2023-02-15T00:06:16;40.30;;;23.50;;
42600;SDS011;28229;48.856;9.088;2023-02-15T00:08:43;36.47;;;20.27;;
42600;SDS011;28229;48.856;9.088;2023-02-15T00:11:10;35.43;;;20.63;;
42600;SDS011;28229;48.856;9.088;2023-02-15T00:13:38;35.80;;;20.67;;
42600;SDS011;28229;48.856;9.088;2023-02-15T00:16:11;31.30;;;19.77;;
42600;SDS011;28229;48.856;9.088;2023-02-15T00:18:39;33.60;;;20.47;;
42600;SDS011;28229;48.856;9.088;2023-02-15T00:21:06;34.03;;;19.90;;
42600;SDS011;28229;48.856;9.088;2023-02-15T00:23:34;35.37;;;20.97;;
42600;SDS011;28229;48.856;9.088;2023-02-15T00:28:32;33.17;;;20.77;;
42600;SDS011;28229;48.856;9.088;2023-02-15T00:31:03;38.37;;;21.20;;
42600;SDS011;28229;48.856;9.088;2023-02-15T00:33:29;32.07;;;19.67;;
42600;SDS011;28229;48.856;9.088;2023-02-15T00:35:56;34.23;;;20.20;;
42600;SDS011;28229;48.856;9.088;2023-02-15T00:38:23;34.27;;;19.77;;
42600;SDS011;28229;48.856;9.088;2023-02-15T00:40:56;37.50;;;19.23;;
42600;SDS011;28229;48.856;9.088;2023-02-15T00:43:25;31.90;;;18.80;;
42600;SDS011;28229;48.856;9.088;2023-02-15T00:45:52;32.03;;;19.70;;
42600;SDS011;28229;48.856;9.088;2023-02-15T00:48:18;27.00;;;17.40;;
42600;SDS011;28229;48.856;9.088;2023-02-15T00:50:46;30.80;;;18.10;;
42600;SDS011;28229;48.856;9.088;2023-02-15T00:53:12;28.87;;;18.03;;
42600;SDS011;28229;48.856;9.088;2023-02-15T00:55:39;27.90;;;17.70;;
42600;SDS011;28229;48.856;9.088;2023-02-15T00:58:06;29.60;;;17.93;;
42600;SDS011;28229;48.856;9.088;2023-02-15T01:00:35;29.00;;;18.57;;
42600;SDS011;28229;48.856;9.088;2023-02-15T01:03:02;29.83;;;17.80;;
42600;SDS011;28229;48.856;9.088;2023-02-15T01:05:29;28.90;;;17.93;;
42600;SDS011;28229;48.856;9.088;2023-02-15T01:07:58;34.97;;;18.93;;
42600;SDS011;28229;48.856;9.088;2023-02-15T01:10:26;33.87;;;19.43;;
42600;SDS011;28229;48.856;9.088;2023-02-15T01:12:55;31.00;;;18.90;;
42600;SDS011;28229;48.856;9.088;2023-02-15T01:15:22;34.43;;;19.23;;
42600;SDS011;28229;48.856;9.088;2023-02-15T01:17:49;33.20;;;19.17;;
42600;SDS011;28229;48.856;9.088;2023-02-15T01:20:26;32.17;;;18.90;;
42600;SDS011;28229;48.856;9.088;2023-02-15T01:22:53;36.03;;;20.10;;
42600;SDS011;28229;48.856;9.088;2023-02-15T01:25:21;41.73;;;21.50;;
42600;SDS011;28229;48.856;9.088;2023-02-15T01:27:49;41.37;;;21.67;;
42600;SDS011;28229;48.856;9.088;2023-02-15T01:30:15;44.27;;;20.37;;
42600;SDS011;28229;48.856;9.088;2023-02-15T01:33:02;41.27;;;21.23;;
42600;SDS011;28229;48.856;9.088;2023-02-15T01:35:30;34.83;;;19.60;;
42600;SDS011;28229;48.856;9.088;2023-02-15T01:37:57;38.80;;;21.07;;
42600;SDS011;28229;48.856;9.088;2023-02-15T01:40:24;44.80;;;20.80;;
42600;SDS011;28229;48.856;9.088;2023-02-15T01:42:51;44.77;;;20.73;;
42600;SDS011;28229;48.856;9.088;2023-02-15T01:45:26;37.07;;;20.13;;
42600;SDS011;28229;48.856;9.088;2023-02-15T01:50:52;32.40;;;18.50;;
42600;SDS011;28229;48.856;9.088;2023-02-15T01:53:35;33.40;;;19.10;;
42600;SDS011;28229;48.856;9.088;2023-02-15T01:56:16;33.40;;;19.57;;
42600;SDS011;28229;48.856;9.088;2023-02-15T01:58:49;32.80;;;18.87;;
42600;SDS011;28229;48.856;9.088;2023-02-15T02:01:19;32.83;;;19.37;;
42600;SDS011;28229;48.856;9.088;2023-02-15T02:03:49;34.93;;;19.17;;
42600;SDS011;28229;48.856;9.088;2023-02-15T02:06:25;36.07;;;18.57;;
42600;SDS011;28229;48.856;9.088;2023-02-15T02:08:55;36.53;;;18.83;;
42600;SDS011;28229;48.856;9.088;2023-02-15T02:11:22;32.70;;;18.03;;
42600;SDS011;28229;48.856;9.088;2023-02-15T02:13:48;47.70;;;19.27;;
42600;SDS011;28229;48.856;9.088;2023-02-15T02:16:25;55.97;;;19.47;;
42600;SDS011;28229;48.856;9.088;2023-02-15T02:19:12;37.30;;;19.40;;
42600;SDS011;28229;48.856;9.088;2023-02-15T02:27:36;32.03;;;18.87;;
42600;SDS011;28229;48.856;9.088;2023-02-15T02:36:14;57.57;;;23.10;;
42600;SDS011;28229;48.856;9.088;2023-02-15T02:38:40;40.60;;;21.37;;
42600;SDS011;28229;48.856;9.088;2023-02-15T02:46:29;38.27;;;21.30;;
42600;SDS011;28229;48.856;9.088;2023-02-15T02:49:00;42.30;;;20.80;;
42600;SDS011;28229;48.856;9.088;2023-02-15T02:51:30;41.90;;;22.97;;
42600;SDS011;28229;48.856;9.088;2023-02-15T02:53:58;41.73;;;22.70;;
42600;SDS011;28229;48.856;9.088;2023-02-15T02:56:32;36.47;;;20.40;;
42600;SDS011;28229;48.856;9.088;2023-02-15T02:59:12;46.33;;;22.40;;
42600;SDS011;28229;48.856;9.088;2023-02-15T03:02:00;40.27;;;22.07;;
42600;SDS011;28229;48.856;9.088;2023-02-15T03:04:31;39.40;;;22.10;;
42600;SDS011;28229;48.856;9.088;2023-02-15T03:07:02;47.83;;;21.80;;
42600;SDS011;28229;48.856;9.088;2023-02-15T03:12:13;39.20;;;18.57;;
42600;SDS011;28229;48.856;9.088;2023-02-15T03:14:46;37.37;;;18.73;;
42600;SDS011;28229;48.856;9.088;2023-02-15T03:17:17;31.23;;;18.73;;
42600;SDS011;28229;48.856;9.088;2023-02-15T03:19:47;32.30;;;19.40;;
42600;SDS011;28229;48.856;9.088;2023-02-15T03:22:28;30.03;;;18.57;;
42600;SDS011;28229;48.856;9.088;2023-02-15T03:25:06;35.53;;;18.53;;
42600;SDS011;28229;48.856;9.088;2023-02-15T03:27:45;30.07;;;18.33;;
42600;SDS011;28229;48.856;9.088;2023-02-15T03:30:18;35.17;;;18.03;;
42600;SDS011;28229;48.856;9.088;2023-02-15T03:32:47;36.33;;;18.97;;
42600;SDS011;28229;48.856;9.088;2023-02-15T03:35:30;33.17;;;18.93;;
42600;SDS011;28229;48.856;9.088;2023-02-15T03:38:03;37.40;;;18.57;;
42600;SDS011;28229;48.856;9.088;2023-02-15T03:40:40;33.43;;;17.90;;
42600;SDS011;28229;48.856;9.088;2023-02-15T03:46:16;29.80;;;18.07;;
42600;SDS011;28229;48.856;9.088;2023-02-15T03:48:51;30.37;;;17.20;;
42600;SDS011;28229;48.856;9.088;2023-02-15T03:51:29;44.33;;;18.53;;
42600;SDS011;28229;48.856;9.088;2023-02-15T03:56:30;32.40;;;18.63;;
42600;SDS011;28229;48.856;9.088;2023-02-15T03:58:58;32.97;;;18.03;;
42600;SDS011;28229;48.856;9.088;2023-02-15T04:01:48;32.13;;;18.17;;
42600;SDS011;28229;48.856;9.088;2023-02-15T04:07:08;33.17;;;18.87;;
42600;SDS011;28229;48.856;9.088;2023-02-15T04:09:35;27.10;;;17.57;;
42600;SDS011;28229;48.856;9.088;2023-02-15T04:12:20;31.53;;;18.67;;
42600;SDS011;28229;48.856;9.088;2023-02-15T04:14:46;32.47;;;17.77;;
42600;SDS011;28229;48.856;9.088;2023-02-15T04:17:31;39.13;;;17.63;;
42600;SDS011;28229;48.856;9.088;2023-02-15T04:19:57;30.73;;;17.60;;
42600;SDS011;28229;48.856;9.088;2023-02-15T04:22:42;33.57;;;18.43;;
42600;SDS011;28229;48.856;9.088;2023-02-15T04:25:27;36.33;;;18.83;;
42600;SDS011;28229;48.856;9.088;2023-02-15T04:27:53;34.10;;;18.73;;
42600;SDS011;28229;48.856;9.088;2023-02-15T04:30:21;31.40;;;17.90;;
42600;SDS011;28229;48.856;9.088;2023-02-15T04:32:49;39.77;;;19.60;;
42600;SDS011;28229;48.856;9.088;2023-02-15T04:35:17;29.77;;;17.80;;
42600;SDS011;28229;48.856;9.088;2023-02-15T04:37:44;30.10;;;18.17;;
42600;SDS011;28229;48.856;9.088;2023-02-15T04:40:12;59.20;;;19.97;;
42600;SDS011;28229;48.856;9.088;2023-02-15T04:42:39;38.00;;;17.87;;
42600;SDS011;28229;48.856;9.088;2023-02-15T04:45:05;33.03;;;18.47;;
42600;SDS011;28229;48.856;9.088;2023-02-15T04:47:32;27.67;;;17.67;;
42600;SDS011;28229;48.856;9.088;2023-02-15T04:49:58;30.73;;;18.13;;
42600;SDS011;28229;48.856;9.088;2023-02-15T04:52:25;30.97;;;17.80;;
42600;SDS011;28229;48.856;9.088;2023-02-15T04:54:51;48.10;;;18.80;;
42600;SDS011;28229;48.856;9.088;2023-02-15T04:57:17;29.07;;;17.20;;
42600;SDS011;28229;48.856;9.088;2023-02-15T04:59:44;28.63;;;17.80;;
42600;SDS011;28229;48.856;9.088;2023-02-15T05:02:10;30.70;;;17.80;;
42600;SDS011;28229;48.856;9.088;2023-02-15T05:04:36;33.13;;;18.53;;
42600;SDS011;28229;48.856;9.088;2023-02-15T05:07:02;31.50;;;17.93;;
42600;SDS011;28229;48.856;9.088;2023-02-15T05:09:28;30.93;;;18.00;;
42600;SDS011;28229;48.856;9.088;2023-02-15T05:11:55;30.60;;;19.37;;
42600;SDS011;28229;48.856;9.088;2023-02-15T05:14:21;37.07;;;17.90;;
42600;SDS011;28229;48.856;9.088;2023-02-15T05:16:47;31.37;;;17.90;;
42600;SDS011;28229;48.856;9.088;2023-02-15T05:19:13;41.57;;;18.77;;
42600;SDS011;28229;48.856;9.088;2023-02-15T05:21:39;31.70;;;18.13;;
42600;SDS011;28229;48.856;9.088;2023-02-15T05:24:05;32.37;;;17.97;;
42600;SDS011;28229;48.856;9.088;2023-02-15T05:26:52;28.70;;;17.27;;
42600;SDS011;28229;48.856;9.088;2023-02-15T05:29:37;28.27;;;17.70;;
42600;SDS011;28229;48.856;9.088;2023-02-15T05:32:05;27.60;;;17.73;;
42600;SDS011;28229;48.856;9.088;2023-02-15T05:34:31;29.03;;;17.30;;
42600;SDS011;28229;48.856;9.088;2023-02-15T05:36:57;35.07;;;18.57;;
42600;SDS011;28229;48.856;9.088;2023-02-15T05:39:24;30.83;;;18.23;;
42600;SDS011;28229;48.856;9.088;2023-02-15T05:41:50;29.77;;;17.20;;
42600;SDS011;28229;48.856;9.088;2023-02-15T05:44:16;28.23;;;17.13;;
42600;SDS011;28229;48.856;9.088;2023-02-15T05:46:42;31.60;;;18.03;;
42600;SDS011;28229;48.856;9.088;2023-02-15T05:49:08;29.90;;;17.80;;
42600;SDS011;28229;48.856;9.088;2023-02-15T05:51:52;31.77;;;19.43;;
42600;SDS011;28229;48.856;9.088;2023-02-15T05:54:18;28.40;;;18.00;;
42600;SDS011;28229;48.856;9.088;2023-02-15T05:56:44;29.17;;;17.60;;
42600;SDS011;28229;48.856;9.088;2023-02-15T05:59:10;37.80;;;17.87;;
42600;SDS011;28229;48.856;9.088;2023-02-15T06:01:38;31.03;;;17.67;;
42600;SDS011;28229;48.856;9.088;2023-02-15T06:04:04;52.83;;;18.50;;
42600;SDS011;28229;48.856;9.088;2023-02-15T06:06:30;34.10;;;17.67;;
42600;SDS011;28229;48.856;9.088;2023-02-15T06:08:56;36.23;;;17.50;;
42600;SDS011;28229;48.856;9.088;2023-02-15T06:11:23;27.50;;;17.57;;
42600;SDS011;28229;48.856;9.088;2023-02-15T06:13:49;29.53;;;16.83;;
42600;SDS011;28229;48.856;9.088;2023-02-15T06:16:15;29.90;;;17.53;;
42600;SDS011;28229;48.856;9.088;2023-02-15T06:18:41;35.37;;;17.60;;
42600;SDS011;28229;48.856;9.088;2023-02-15T06:21:08;30.60;;;16.17;;
42600;SDS011;28229;48.856;9.088;2023-02-15T06:23:34;29.17;;;17.13;;
42600;SDS011;28229;48.856;9.088;2023-02-15T06:26:01;31.50;;;16.90;;
42600;SDS011;28229;48.856;9.088;2023-02-15T06:28:27;24.53;;;15.93;;
42600;SDS011;28229;48.856;9.088;2023-02-15T06:30:53;28.37;;;16.33;;
42600;SDS011;28229;48.856;9.088;2023-02-15T06:33:19;25.13;;;16.30;;
42600;SDS011;28229;48.856;9.088;2023-02-15T06:35:45;26.90;;;16.67;;
42600;SDS011;28229;48.856;9.088;2023-02-15T06:38:12;29.23;;;16.83;;
42600;SDS011;28229;48.856;9.088;2023-02-15T06:40:38;24.77;;;16.27;;
42600;SDS011;28229;48.856;9.088;2023-02-15T06:43:04;26.47;;;16.60;;
42600;SDS011;28229;48.856;9.088;2023-02-15T06:45:30;26.73;;;17.37;;
42600;SDS011;28229;48.856;9.088;2023-02-15T06:47:57;32.70;;;18.13;;
42600;SDS011;28229;48.856;9.088;2023-02-15T06:50:23;30.77;;;16.87;;
42600;SDS011;28229;48.856;9.088;2023-02-15T06:52:49;34.20;;;18.07;;
42600;SDS011;28229;48.856;9.088;2023-02-15T06:55:15;29.33;;;16.37;;
42600;SDS011;28229;48.856;9.088;2023-02-15T06:57:41;27.57;;;17.80;;
42600;SDS011;28229;48.856;9.088;2023-02-15T07:00:07;33.00;;;18.63;;
42600;SDS011;28229;48.856;9.088;2023-02-15T07:02:34;28.70;;;17.73;;
42600;SDS011;28229;48.856;9.088;2023-02-15T07:05:00;25.87;;;17.00;;
42600;SDS011;28229;48.856;9.088;2023-02-15T07:07:26;28.97;;;17.57;;
42600;SDS011;28229;48.856;9.088;2023-02-15T07:09:53;27.93;;;17.53;;
42600;SDS011;28229;48.856;9.088;2023-02-15T07:12:19;31.30;;;17.63;;
42600;SDS011;28229;48.856;9.088;2023-02-15T07:15:04;31.80;;;18.20;;
42600;SDS011;28229;48.856;9.088;2023-02-15T07:17:32;25.70;;;16.30;;
42600;SDS011;28229;48.856;9.088;2023-02-15T07:19:58;25.17;;;16.27;;
42600;SDS011;28229;48.856;9.088;2023-02-15T07:22:24;28.27;;;17.37;;
42600;SDS011;28229;48.856;9.088;2023-02-15T07:24:50;27.63;;;17.10;;
42600;SDS011;28229;48.856;9.088;2023-02-15T07:27:20;30.97;;;18.27;;
42600;SDS011;28229;48.856;9.088;2023-02-15T07:29:47;29.57;;;17.33;;
42600;SDS011;28229;48.856;9.088;2023-02-15T07:32:15;30.27;;;16.73;;
42600;SDS011;28229;48.856;9.088;2023-02-15T07:34:43;26.23;;;16.87;;
42600;SDS011;28229;48.856;9.088;2023-02-15T07:37:09;32.63;;;17.93;;
42600;SDS011;28229;48.856;9.088;2023-02-15T07:39:38;29.33;;;17.87;;
42600;SDS011;28229;48.856;9.088;2023-02-15T07:42:06;28.23;;;17.33;;
42600;SDS011;28229;48.856;9.088;2023-02-15T07:44:33;27.37;;;18.00;;
42600;SDS011;28229;48.856;9.088;2023-02-15T07:46:59;28.50;;;17.27;;
42600;SDS011;28229;48.856;9.088;2023-02-15T07:49:25;30.17;;;19.27;;
42600;SDS011;28229;48.856;9.088;2023-02-15T07:51:51;37.23;;;17.90;;
42600;SDS011;28229;48.856;9.088;2023-02-15T07:54:17;28.93;;;18.47;;
42600;SDS011;28229;48.856;9.088;2023-02-15T07:56:43;32.83;;;18.97;;
42600;SDS011;28229;48.856;9.088;2023-02-15T07:59:10;30.20;;;17.93;;
42600;SDS011;28229;48.856;9.088;2023-02-15T08:01:37;31.33;;;18.10;;
42600;SDS011;28229;48.856;9.088;2023-02-15T08:04:05;34.27;;;18.40;;
42600;SDS011;28229;48.856;9.088;2023-02-15T08:06:33;48.30;;;18.63;;
42600;SDS011;28229;48.856;9.088;2023-02-15T08:09:03;25.70;;;17.27;;
42600;SDS011;28229;48.856;9.088;2023-02-15T08:11:34;30.60;;;16.80;;
42600;SDS011;28229;48.856;9.088;2023-02-15T08:14:13;29.50;;;17.13;;
42600;SDS011;28229;48.856;9.088;2023-02-15T08:19:16;27.77;;;17.03;;
42600;SDS011;28229;48.856;9.088;2023-02-15T08:21:45;27.63;;;17.07;;
42600;SDS011;28229;48.856;9.088;2023-02-15T08:24:16;26.00;;;16.97;;
42600;SDS011;28229;48.856;9.088;2023-02-15T08:26:44;24.83;;;15.90;;
42600;SDS011;28229;48.856;9.088;2023-02-15T08:29:12;26.47;;;16.87;;
42600;SDS011;28229;48.856;9.088;2023-02-15T08:31:43;27.40;;;17.37;;
42600;SDS011;28229;48.856;9.088;2023-02-15T08:34:10;29.57;;;18.27;;
42600;SDS011;28229;48.856;9.088;2023-02-15T08:36:40;25.40;;;17.07;;
42600;SDS011;28229;48.856;9.088;2023-02-15T08:39:07;36.13;;;17.33;;
42600;SDS011;28229;48.856;9.088;2023-02-15T08:41:34;27.67;;;17.03;;
42600;SDS011;28229;48.856;9.088;2023-02-15T08:44:03;27.30;;;16.77;;
42600;SDS011;28229;48.856;9.088;2023-02-15T08:46:34;34.03;;;17.33;;
42600;SDS011;28229;48.856;9.088;2023-02-15T08:49:02;31.07;;;16.73;;
42600;SDS011;28229;48.856;9.088;2023-02-15T08:51:30;24.73;;;16.17;;
42600;SDS011;28229;48.856;9.088;2023-02-15T08:53:59;26.10;;;16.90;;
42600;SDS011;28229;48.856;9.088;2023-02-15T08:56:27;27.30;;;17.40;;
42600;SDS011;28229;48.856;9.088;2023-02-15T08:58:56;27.30;;;17.73;;
42600;SDS011;28229;48.856;9.088;2023-02-15T09:01:23;29.00;;;18.53;;
42600;SDS011;28229;48.856;9.088;2023-02-15T09:03:51;28.30;;;18.73;;
42600;SDS011;28229;48.856;9.088;2023-02-15T09:06:21;35.70;;;18.53;;
42600;SDS011;28229;48.856;9.088;2023-02-15T09:08:49;30.60;;;18.40;;
42600;SDS011;28229;48.856;9.088;2023-02-15T09:11:20;30.33;;;17.33;;
42600;SDS011;28229;48.856;9.088;2023-02-15T09:13:50;29.27;;;17.63;;
42600;SDS011;28229;48.856;9.088;2023-02-15T09:16:22;27.30;;;17.50;;
42600;SDS011;28229;48.856;9.088;2023-02-15T09:18:50;30.87;;;18.23;;
42600;SDS011;28229;48.856;9.088;2023-02-15T09:21:18;27.90;;;16.70;;
42600;SDS011;28229;48.856;9.088;2023-02-15T09:23:47;26.77;;;17.83;;
42600;SDS011;28229;48.856;9.088;2023-02-15T09:26:18;27.57;;;16.97;;
42600;SDS011;28229;48.856;9.088;2023-02-15T09:28:46;25.47;;;17.67;;
42600;SDS011;28229;48.856;9.088;2023-02-15T09:31:15;28.73;;;17.63;;
42600;SDS011;28229;48.856;9.088;2023-02-15T09:33:44;26.70;;;17.17;;
42600;SDS011;28229;48.856;9.088;2023-02-15T09:38:52;27.87;;;18.20;;
42600;SDS011;28229;48.856;9.088;2023-02-15T09:46:56;30.87;;;19.30;;
42600;SDS011;28229;48.856;9.088;2023-02-15T09:58:18;31.40;;;19.20;;
42600;SDS011;28229;48.856;9.088;2023-02-15T10:01:07;27.70;;;18.13;;
42600;SDS011;28229;48.856;9.088;2023-02-15T10:06:55;26.13;;;18.13;;
42600;SDS011;28229;48.856;9.088;2023-02-15T10:09:49;31.00;;;20.70;;
42600;SDS011;28229;48.856;9.088;2023-02-15T10:12:32;30.60;;;19.17;;
42600;SDS011;28229;48.856;9.088;2023-02-15T10:15:15;27.70;;;18.90;;
42600;SDS011;28229;48.856;9.088;2023-02-15T10:18:09;29.73;;;19.10;;
42600;SDS011;28229;48.856;9.088;2023-02-15T10:28:50;26.70;;;18.77;;
42600;SDS011;28229;48.856;9.088;2023-02-15T10:34:22;28.90;;;19.37;;
42600;SDS011;28229;48.856;9.088;2023-02-15T10:37:17;26.70;;;19.00;;
42600;SDS011;28229;48.856;9.088;2023-02-15T10:51:08;27.00;;;18.07;;
42600;SDS011;28229;48.856;9.088;2023-02-15T10:56:52;29.87;;;19.13;;
42600;SDS011;28229;48.856;9.088;2023-02-15T11:08:29;30.53;;;20.67;;
42600;SDS011;28229;48.856;9.088;2023-02-15T11:11:01;29.53;;;19.70;;
42600;SDS011;28229;48.856;9.088;2023-02-15T11:13:34;29.50;;;19.73;;
42600;SDS011;28229;48.856;9.088;2023-02-15T11:16:40;29.97;;;20.80;;
42600;SDS011;28229;48.856;9.088;2023-02-15T11:19:06;25.97;;;19.07;;
42600;SDS011;28229;48.856;9.088;2023-02-15T11:21:40;29.20;;;20.30;;
42600;SDS011;28229;48.856;9.088;2023-02-15T11:24:11;28.77;;;19.43;;
42600;SDS011;28229;48.856;9.088;2023-02-15T11:26:41;24.40;;;18.03;;
42600;SDS011;28229;48.856;9.088;2023-02-15T11:29:12;26.40;;;18.57;;
42600;SDS011;28229;48.856;9.088;2023-02-15T11:31:45;27.97;;;19.73;;
42600;SDS011;28229;48.856;9.088;2023-02-15T11:34:22;26.60;;;18.67;;
42600;SDS011;28229;48.856;9.088;2023-02-15T11:36:54;26.37;;;19.60;;
42600;SDS011;28229;48.856;9.088;2023-02-15T11:39:23;23.63;;;18.13;;
42600;SDS011;28229;48.856;9.088;2023-02-15T11:41:59;24.03;;;18.07;;
42600;SDS011;28229;48.856;9.088;2023-02-15T11:44:37;22.30;;;17.23;;
42600;SDS011;28229;48.856;9.088;2023-02-15T11:47:11;24.90;;;17.90;;
42600;SDS011;28229;48.856;9.088;2023-02-15T11:49:38;23.03;;;17.30;;
42600;SDS011;28229;48.856;9.088;2023-02-15T11:52:05;24.40;;;17.63;;
42600;SDS011;28229;48.856;9.088;2023-02-15T11:54:34;24.97;;;17.50;;
42600;SDS011;28229;48.856;9.088;2023-02-15T11:57:23;20.03;;;16.97;;
42600;SDS011;28229;48.856;9.088;2023-02-15T12:00:00;21.17;;;16.87;;
42600;SDS011;28229;48.856;9.088;2023-02-15T12:02:33;22.83;;;16.43;;
42600;SDS011;28229;48.856;9.088;2023-02-15T12:05:11;21.10;;;16.50;;
42600;SDS011;28229;48.856;9.088;2023-02-15T12:07:43;21.10;;;15.57;;
42600;SDS011;28229;48.856;9.088;2023-02-15T12:10:22;22.23;;;16.37;;
42600;SDS011;28229;48.856;9.088;2023-02-15T12:15:48;19.80;;;16.10;;
42600;SDS011;28229;48.856;9.088;2023-02-15T12:18:32;24.30;;;16.07;;
42600;SDS011;28229;48.856;9.088;2023-02-15T12:21:12;20.80;;;15.97;;
42600;SDS011;28229;48.856;9.088;2023-02-15T12:23:43;21.80;;;16.07;;
42600;SDS011;28229;48.856;9.088;2023-02-15T12:26:14;21.40;;;16.57;;
42600;SDS011;28229;48.856;9.088;2023-02-15T12:28:49;22.13;;;16.90;;
42600;SDS011;28229;48.856;9.088;2023-02-15T12:33:57;18.60;;;16.03;;
42600;SDS011;28229;48.856;9.088;2023-02-15T12:36:49;23.00;;;17.60;;
42600;SDS011;28229;48.856;9.088;2023-02-15T12:39:27;19.53;;;16.17;;
42600;SDS011;28229;48.856;9.088;2023-02-15T12:44:22;18.63;;;15.70;;
42600;SDS011;28229;48.856;9.088;2023-02-15T12:47:02;22.57;;;16.83;;
42600;SDS011;28229;48.856;9.088;2023-02-15T12:49:31;22.83;;;17.77;;
42600;SDS011;28229;48.856;9.088;2023-02-15T12:52:00;24.70;;;18.60;;
42600;SDS011;28229;48.856;9.088;2023-02-15T12:54:29;23.07;;;18.33;;
42600;SDS011;28229;48.856;9.088;2023-02-15T12:56:56;24.23;;;18.83;;
42600;SDS011;28229;48.856;9.088;2023-02-15T12:59:25;22.57;;;18.17;;
42600;SDS011;28229;48.856;9.088;2023-02-15T13:01:52;22.17;;;17.43;;
42600;SDS011;28229;48.856;9.088;2023-02-15T13:04:25;21.20;;;17.93;;
42600;SDS011;28229;48.856;9.088;2023-02-15T13:07:00;22.27;;;16.43;;
42600;SDS011;28229;48.856;9.088;2023-02-15T13:12:17;19.97;;;17.23;;
42600;SDS011;28229;48.856;9.088;2023-02-15T13:14:54;21.80;;;17.33;;
42600;SDS011;28229;48.856;9.088;2023-02-15T13:17:24;23.33;;;17.10;;
42600;SDS011;28229;48.856;9.088;2023-02-15T13:19:56;18.57;;;16.23;;
42600;SDS011;28229;48.856;9.088;2023-02-15T13:22:40;21.50;;;16.97;;
42600;SDS011;28229;48.856;9.088;2023-02-15T13:25:10;20.93;;;17.37;;
42600;SDS011;28229;48.856;9.088;2023-02-15T13:27:41;20.17;;;16.87;;
42600;SDS011;28229;48.856;9.088;2023-02-15T13:32:51;21.13;;;16.70;;
42600;SDS011;28229;48.856;9.088;2023-02-15T13:35:22;19.10;;;16.73;;
42600;SDS011;28229;48.856;9.088;2023-02-15T13:40:48;20.60;;;17.67;;
42600;SDS011;28229;48.856;9.088;2023-02-15T13:43:34;20.30;;;16.17;;
42600;SDS011;28229;48.856;9.088;2023-02-15T13:51:15;19.17;;;16.80;;
42600;SDS011;28229;48.856;9.088;2023-02-15T13:59:44;19.80;;;16.87;;
42600;SDS011;28229;48.856;9.088;2023-02-15T14:02:37;20.13;;;17.13;;
42600;SDS011;28229;48.856;9.088;2023-02-15T14:05:33;21.27;;;17.67;;
42600;SDS011;28229;48.856;9.088;2023-02-15T14:11:19;21.03;;;17.37;;
42600;SDS011;28229;48.856;9.088;2023-02-15T14:19:51;19.13;;;17.03;;
42600;SDS011;28229;48.856;9.088;2023-02-15T14:22:38;22.30;;;17.90;;
42600;SDS011;28229;48.856;9.088;2023-02-15T14:25:25;23.60;;;19.77;;
42600;SDS011;28229;48.856;9.088;2023-02-15T14:30:38;19.97;;;17.33;;
42600;SDS011;28229;48.856;9.088;2023-02-15T14:33:08;22.13;;;18.10;;
42600;SDS011;28229;48.856;9.088;2023-02-15T14:35:54;23.03;;;18.60;;
42600;SDS011;28229;48.856;9.088;2023-02-15T14:44:23;21.77;;;17.63;;
42600;SDS011;28229;48.856;9.088;2023-02-15T14:47:00;21.53;;;17.83;;
42600;SDS011;28229;48.856;9.088;2023-02-15T14:49:35;21.60;;;17.10;;
42600;SDS011;28229;48.856;9.088;2023-02-15T14:52:09;18.77;;;16.43;;
42600;SDS011;28229;48.856;9.088;2023-02-15T15:01:59;19.13;;;17.13;;
42600;SDS011;28229;48.856;9.088;2023-02-15T15:04:52;19.10;;;17.10;;
42600;SDS011;28229;48.856;9.088;2023-02-15T15:07:27;19.60;;;17.60;;
42600;SDS011;28229;48.856;9.088;2023-02-15T15:15:34;19.90;;;16.40;;
42600;SDS011;28229;48.856;9.088;2023-02-15T15:18:10;22.53;;;17.33;;
42600;SDS011;28229;48.856;9.088;2023-02-15T15:30:49;21.10;;;17.30;;
42600;SDS011;28229;48.856;9.088;2023-02-15T15:41:03;21.80;;;18.60;;
42600;SDS011;28229;48.856;9.088;2023-02-15T15:49:15;23.83;;;17.60;;
42600;SDS011;28229;48.856;9.088;2023-02-15T15:51:44;22.60;;;18.47;;
42600;SDS011;28229;48.856;9.088;2023-02-15T15:54:14;20.50;;;18.07;;
42600;SDS011;28229;48.856;9.088;2023-02-15T15:56:44;21.33;;;16.77;;
42600;SDS011;28229;48.856;9.088;2023-02-15T15:59:17;23.37;;;17.27;;
42600;SDS011;28229;48.856;9.088;2023-02-15T16:01:46;22.30;;;17.53;;
42600;SDS011;28229;48.856;9.088;2023-02-15T16:04:21;21.07;;;16.63;;
42600;SDS011;28229;48.856;9.088;2023-02-15T16:06:51;22.70;;;18.17;;
42600;SDS011;28229;48.856;9.088;2023-02-15T16:09:19;20.40;;;17.57;;
42600;SDS011;28229;48.856;9.088;2023-02-15T16:11:48;22.10;;;17.57;;
42600;SDS011;28229;48.856;9.088;2023-02-15T16:16:54;22.67;;;17.33;;
42600;SDS011;28229;48.856;9.088;2023-02-15T16:19:23;22.03;;;17.47;;
42600;SDS011;28229;48.856;9.088;2023-02-15T16:21:52;21.33;;;16.90;;
42600;SDS011;28229;48.856;9.088;2023-02-15T16:24:26;22.13;;;17.53;;
42600;SDS011;28229;48.856;9.088;2023-02-15T16:27:07;22.93;;;17.80;;
42600;SDS011;28229;48.856;9.088;2023-02-15T16:29:54;21.53;;;16.47;;
42600;SDS011;28229;48.856;9.088;2023-02-15T16:32:24;22.50;;;17.87;;
42600;SDS011;28229;48.856;9.088;2023-02-15T16:37:27;22.13;;;17.00;;
42600;SDS011;28229;48.856;9.088;2023-02-15T16:40:00;22.30;;;17.20;;
42600;SDS011;28229;48.856;9.088;2023-02-15T16:42:26;22.60;;;17.10;;
42600;SDS011;28229;48.856;9.088;2023-02-15T16:45:06;21.67;;;17.13;;
42600;SDS011;28229;48.856;9.088;2023-02-15T16:47:40;23.07;;;17.63;;
42600;SDS011;28229;48.856;9.088;2023-02-15T16:50:17;20.93;;;17.03;;
42600;SDS011;28229;48.856;9.088;2023-02-15T16:52:45;22.50;;;16.97;;
42600;SDS011;28229;48.856;9.088;2023-02-15T16:55:25;21.20;;;17.17;;
42600;SDS011;28229;48.856;9.088;2023-02-15T16:57:55;24.93;;;17.20;;
42600;SDS011;28229;48.856;9.088;2023-02-15T17:00:26;20.23;;;16.63;;
42600;SDS011;28229;48.856;9.088;2023-02-15T17:02:59;22.43;;;17.47;;
42600;SDS011;28229;48.856;9.088;2023-02-15T17:05:33;21.10;;;17.27;;
42600;SDS011;28229;48.856;9.088;2023-02-15T17:13:25;21.63;;;16.27;;
42600;SDS011;28229;48.856;9.088;2023-02-15T17:18:44;28.67;;;17.10;;
42600;SDS011;28229;48.856;9.088;2023-02-15T17:21:12;22.20;;;16.60;;
42600;SDS011;28229;48.856;9.088;2023-02-15T17:23:50;25.37;;;18.60;;
42600;SDS011;28229;48.856;9.088;2023-02-15T17:26:32;24.03;;;18.30;;
42600;SDS011;28229;48.856;9.088;2023-02-15T17:29:05;26.37;;;18.27;;
42600;SDS011;28229;48.856;9.088;2023-02-15T17:31:54;27.50;;;18.27;;
42600;SDS011;28229;48.856;9.088;2023-02-15T17:40:24;27.00;;;18.40;;
42600;SDS011;28229;48.856;9.088;2023-02-15T17:42:55;30.93;;;17.67;;
42600;SDS011;28229;48.856;9.088;2023-02-15T17:45:21;27.77;;;18.17;;
42600;SDS011;28229;48.856;9.088;2023-02-15T17:47:52;27.37;;;16.97;;
42600;SDS011;28229;48.856;9.088;2023-02-15T17:50:20;28.50;;;18.00;;
42600;SDS011;28229;48.856;9.088;2023-02-15T17:52:48;36.77;;;24.70;;
42600;SDS011;28229;48.856;9.088;2023-02-15T17:55:16;40.03;;;28.17;;
42600;SDS011;28229;48.856;9.088;2023-02-15T17:58:04;33.93;;;23.00;;